createdAt,value
2022-08-03T00:03:50.097Z,22.20
2022-08-03T00:09:43.560Z,22.30
2022-08-03T00:15:38.293Z,22.30
2022-08-03T00:21:31.405Z,22.20
2022-08-03T00:27:24.868Z,22.20
2022-08-03T00:33:19.738Z,22.30
2022-08-03T00:39:15.439Z,22.20
2022-08-03T00:45:09.118Z,22.20
2022-08-03T00:51:04.216Z,22.20
2022-08-03T00:56:59.870Z,22.30
2022-08-03T01:02:54.363Z,22.30
2022-08-03T01:08:58.349Z,22.20
2022-08-03T01:14:57.231Z,22.10
2022-08-03T01:20:57.165Z,22.10
2022-08-03T01:27:14.202Z,22.00
2022-08-03T01:33:15.278Z,21.90
2022-08-03T01:39:11.415Z,21.90
2022-08-03T01:45:06.436Z,21.80
2022-08-03T01:51:02.554Z,21.80
2022-08-03T01:56:58.122Z,21.80
2022-08-03T02:02:53.505Z,21.60
2022-08-03T02:08:49.930Z,21.40
2022-08-03T02:14:45.984Z,21.50
2022-08-03T02:20:40.991Z,21.50
2022-08-03T02:26:39.800Z,21.20
2022-08-03T02:32:37.180Z,21.20
2022-08-03T02:38:42.105Z,21.00
2022-08-03T02:44:38.542Z,21.00
2022-08-03T02:50:35.466Z,21.00
2022-08-03T02:56:29.805Z,21.10
2022-08-03T03:02:25.520Z,20.90
2022-08-03T03:08:27.484Z,20.80
2022-08-03T03:14:33.770Z,20.90
2022-08-03T03:20:30.712Z,20.90
2022-08-03T03:26:24.289Z,20.80
2022-08-03T03:32:17.996Z,20.70
2022-08-03T03:38:13.066Z,20.80
2022-08-03T03:44:06.798Z,20.70
2022-08-03T03:50:01.545Z,20.80
2022-08-03T03:56:01.984Z,21.00
2022-08-03T04:01:59.242Z,20.90
2022-08-03T04:08:17.435Z,21.20
2022-08-03T04:14:14.624Z,20.50
2022-08-03T04:20:09.362Z,20.40
2022-08-03T04:26:04.250Z,20.60
2022-08-03T04:32:03.186Z,20.60
2022-08-03T04:38:01.725Z,20.70
2022-08-03T04:43:57.455Z,20.70
2022-08-03T04:49:53.052Z,20.70
2022-08-03T04:55:46.617Z,20.70
2022-08-03T05:01:41.305Z,20.70
2022-08-03T05:07:36.762Z,20.80
2022-08-03T05:13:30.211Z,21.00
2022-08-03T05:19:23.767Z,20.70
2022-08-03T05:25:20.582Z,20.90
2022-08-03T05:31:15.697Z,21.10
2022-08-03T05:37:09.082Z,21.00
2022-08-03T05:43:04.312Z,21.00
2022-08-03T05:48:57.715Z,21.10
2022-08-03T05:54:56.248Z,21.10
2022-08-03T06:00:52.066Z,21.20
2022-08-03T06:06:45.481Z,21.30
2022-08-03T06:12:41.614Z,21.40
2022-08-03T06:18:36.554Z,21.50
2022-08-03T06:24:29.944Z,21.60
2022-08-03T06:30:23.343Z,21.80
2022-08-03T06:36:18.041Z,21.90
2022-08-03T06:42:11.853Z,22.00
2022-08-03T06:48:07.693Z,22.20
2022-08-03T06:54:02.585Z,22.40
2022-08-03T07:00:07.591Z,22.60
2022-08-03T07:06:05.730Z,22.80
2022-08-03T07:12:02.656Z,23.00
2022-08-03T07:17:56.046Z,23.10
2022-08-03T07:23:49.435Z,23.20
2022-08-03T07:29:44.265Z,23.40
2022-08-03T07:35:37.700Z,23.60
2022-08-03T07:41:32.191Z,23.70
2022-08-03T07:47:35.014Z,23.80
2022-08-03T07:53:28.952Z,23.90
2022-08-03T07:59:22.379Z,24.00
2022-08-03T08:05:17.141Z,24.40
2022-08-03T08:11:10.558Z,24.40
2022-08-03T08:17:07.229Z,24.40
2022-08-03T08:23:19.959Z,24.60
2022-08-03T08:29:17.757Z,25.10
2022-08-03T08:35:11.759Z,25.00
2022-08-03T08:41:06.612Z,25.20
2022-08-03T08:47:05.076Z,25.30
2022-08-03T08:53:01.704Z,25.40
2022-08-03T08:59:00.231Z,25.40
2022-08-03T09:04:54.554Z,25.70
2022-08-03T09:10:48.379Z,26.00
2022-08-03T09:16:57.196Z,25.90
2022-08-03T09:22:59.441Z,25.90
2022-08-03T09:29:04.694Z,26.00
2022-08-03T09:35:06.204Z,26.10
2022-08-03T09:41:02.857Z,26.10
2022-08-03T09:46:57.893Z,26.20
2022-08-03T09:52:53.089Z,26.20
2022-08-03T09:58:48.036Z,26.40
2022-08-03T10:04:50.914Z,26.50
2022-08-03T10:10:46.117Z,26.60
2022-08-03T10:16:40.891Z,26.70
2022-08-03T10:22:37.340Z,26.70
2022-08-03T10:28:41.449Z,27.00
2022-08-03T10:34:44.628Z,27.10
2022-08-03T10:40:48.742Z,27.00
2022-08-03T10:46:46.451Z,27.20
2022-08-03T10:52:58.767Z,27.40
2022-08-03T10:58:57.460Z,27.60
2022-08-03T11:05:26.107Z,27.70
2022-08-03T11:11:29.623Z,28.00
2022-08-03T11:17:23.851Z,28.40
2022-08-03T11:24:04.888Z,28.70
2022-08-03T11:29:34.957Z,28.90
2022-08-03T11:35:30.454Z,28.40
2022-08-03T11:41:44.920Z,28.50
2022-08-03T11:47:50.480Z,29.00
2022-08-03T11:53:48.100Z,29.10
2022-08-03T11:59:42.885Z,29.10
2022-08-03T12:05:42.231Z,29.00
2022-08-03T12:11:50.930Z,29.70
2022-08-03T12:17:57.866Z,29.50
2022-08-03T12:23:51.741Z,29.40
2022-08-03T12:29:45.181Z,29.40
2022-08-03T12:36:08.387Z,29.50
2022-08-03T12:42:01.872Z,29.40
2022-08-03T12:47:56.666Z,29.50
2022-08-03T12:53:55.868Z,29.50
2022-08-03T12:59:53.543Z,29.90
2022-08-03T13:05:47.498Z,30.20
2022-08-03T13:11:58.256Z,29.90
2022-08-03T13:17:56.566Z,30.10
2022-08-03T13:23:50.445Z,30.40
2022-08-03T13:29:45.291Z,30.30
2022-08-03T13:35:38.926Z,30.80
2022-08-03T13:41:32.975Z,30.70
2022-08-03T13:47:28.261Z,31.00
2022-08-03T13:53:21.723Z,31.80
2022-08-03T13:59:15.056Z,32.20
2022-08-03T14:05:10.420Z,31.30
2022-08-03T14:11:05.298Z,31.30
2022-08-03T14:16:58.770Z,31.70
2022-08-03T14:22:53.719Z,31.70
2022-08-03T14:28:47.273Z,31.80
2022-08-03T14:34:40.744Z,32.00
2022-08-03T14:40:35.570Z,31.70
2022-08-03T14:46:29.110Z,32.10
2022-08-03T14:52:22.562Z,32.40
2022-08-03T14:58:19.474Z,31.70
2022-08-03T15:04:14.355Z,31.60
2022-08-03T15:10:07.867Z,31.60
2022-08-03T15:16:02.622Z,31.70
2022-08-03T15:21:56.069Z,31.30
2022-08-03T15:28:03.480Z,31.10
2022-08-03T15:33:59.159Z,31.10
2022-08-03T15:39:59.782Z,30.90
2022-08-03T15:46:26.356Z,31.00
2022-08-03T15:52:09.371Z,30.90
2022-08-03T15:59:04.578Z,30.90
2022-08-03T16:04:17.411Z,30.70
2022-08-03T16:10:13.695Z,30.60
2022-08-03T16:16:07.183Z,30.40
2022-08-03T16:22:00.950Z,30.30
2022-08-03T16:28:07.715Z,30.30
2022-08-03T16:34:06.314Z,30.30
2022-08-03T16:40:00.039Z,30.10
2022-08-03T16:45:55.232Z,30.20
2022-08-03T16:51:50.407Z,30.10
2022-08-03T16:57:58.457Z,30.20
2022-08-03T17:04:02.700Z,30.10
2022-08-03T17:09:58.044Z,30.00
2022-08-03T17:16:01.336Z,30.00
2022-08-03T17:22:03.987Z,29.90
2022-08-03T17:28:48.989Z,29.90
2022-08-03T17:34:12.897Z,29.90
2022-08-03T17:40:09.213Z,29.90
2022-08-03T17:46:07.355Z,29.90
2022-08-03T17:52:07.028Z,29.80
2022-08-03T17:58:10.739Z,29.70
2022-08-03T18:04:10.969Z,29.60
2022-08-03T18:10:11.206Z,29.60
2022-08-03T18:16:08.867Z,29.50
2022-08-03T18:22:04.382Z,29.40
2022-08-03T18:27:59.157Z,29.30
2022-08-03T18:34:19.599Z,29.30
2022-08-03T18:40:08.934Z,29.20
2022-08-03T18:46:07.711Z,29.20
2022-08-03T18:52:12.485Z,29.10
2022-08-03T18:58:18.202Z,29.10
2022-08-03T19:04:15.041Z,29.00
2022-08-03T19:10:15.687Z,28.90
2022-08-03T19:16:12.934Z,28.80
2022-08-03T19:22:07.019Z,28.60
2022-08-03T19:28:06.323Z,28.30
2022-08-03T19:34:01.386Z,28.30
2022-08-03T19:39:56.843Z,28.30
2022-08-03T19:46:06.465Z,28.00
2022-08-03T19:52:03.391Z,27.70
2022-08-03T19:57:58.192Z,27.60
2022-08-03T20:03:54.016Z,27.20
2022-08-03T20:09:47.779Z,27.20
2022-08-03T20:15:48.833Z,27.00
2022-08-03T20:21:51.337Z,26.90
2022-08-03T20:28:08.077Z,26.90
2022-08-03T20:34:01.940Z,26.90
2022-08-03T20:39:56.797Z,26.90
2022-08-03T20:46:00.811Z,26.60
2022-08-03T20:52:04.194Z,26.50
2022-08-03T20:58:00.813Z,26.50
2022-08-03T21:03:56.805Z,26.50
2022-08-03T21:09:55.473Z,26.50
2022-08-03T21:16:06.099Z,26.30
2022-08-03T21:22:10.392Z,26.50
2022-08-03T21:28:07.865Z,26.40
2022-08-03T21:34:06.533Z,26.20
2022-08-03T21:39:59.979Z,26.10
2022-08-03T21:45:55.071Z,26.10
2022-08-03T21:51:50.916Z,26.10
2022-08-03T21:57:46.611Z,26.10
2022-08-03T22:03:52.940Z,26.10
2022-08-03T22:09:50.976Z,26.00
2022-08-03T22:15:45.888Z,26.00
2022-08-03T22:21:39.353Z,25.90
2022-08-03T22:27:38.546Z,25.80
2022-08-03T22:33:32.340Z,25.70
2022-08-03T22:39:29.402Z,25.80
2022-08-03T22:46:07.695Z,25.70
2022-08-03T22:51:39.237Z,25.50
2022-08-03T22:57:34.307Z,25.40
2022-08-03T23:04:00.616Z,25.30
2022-08-03T23:09:48.766Z,25.30
2022-08-03T23:15:42.798Z,25.20
2022-08-03T23:21:59.649Z,25.30
2022-08-03T23:28:05.230Z,25.20
2022-08-03T23:34:18.923Z,25.00
2022-08-03T23:40:14.950Z,25.00
2022-08-03T23:46:10.359Z,25.00
2022-08-03T23:52:09.487Z,24.80
2022-08-03T23:58:10.769Z,24.70
